1984 NAMELESS (1984083S16174)


On this page: IBTrACS data - Map and Plots - Positions - Intensities - Original source data

Summary

Start Mar 23
End Mar 30
Basin SP
LMI 40 kt
Source wellington
In WMO? Yes
Previous storm 1984 MISSING (SP)
Previous in basin 1984 MISSING (SP)
Concurrent storms 1984 KATHY (SP)
1984 NAMELESS (SP)
Next in basin Missing
Next storm 1984 KAMISY (SI)

top of page IBTrACS Data: File Access

top of page HURSAT Data: File Access

Image of storm

top of page Plots:

Map of storm track will not appear if FTP is down
Time series of cyclone Maximum Sustained Wind will not appear if FTP is down
Time series of cyclone Minimum Central Pressure will not appear if FTP is down

top of page Track Data:Position

wellington
Date Lat Lon
1984-03-23 00:00:00 -16.0 174.0
1984-03-23 06:00:00 -15.5 174.7
1984-03-23 12:00:00 -14.9 175.1
1984-03-23 18:00:00 -14.2 175.2
1984-03-24 00:00:00 -13.5 174.9
1984-03-24 06:00:00 -13.0 174.2
1984-03-24 12:00:00 -12.7 173.5
1984-03-24 18:00:00 -12.5 173.1
1984-03-25 00:00:00 -12.3 173.0
1984-03-25 06:00:00 -12.0 173.2
1984-03-25 12:00:00 -11.7 173.5
1984-03-25 18:00:00 -11.5 173.7
1984-03-26 00:00:00 -11.3 174.0
1984-03-26 06:00:00 -11.0 174.3
1984-03-26 12:00:00 -10.7 174.8
1984-03-26 18:00:00 -10.6 175.5
1984-03-27 00:00:00 -10.5 176.4
1984-03-27 06:00:00 -10.5 177.2
1984-03-27 12:00:00 -10.5 178.0
1984-03-27 18:00:00 -10.4 179.1
1984-03-28 00:00:00 -10.5 180.2
1984-03-28 06:00:00 -10.9 180.9
1984-03-28 12:00:00 -11.5 181.5
1984-03-28 18:00:00 -12.0 182.2
1984-03-29 00:00:00 -12.5 183.0
wellington
1984-03-29 06:00:00 -13.1 183.7
1984-03-29 12:00:00 -13.7 184.3
1984-03-29 18:00:00 -14.1 184.9
1984-03-30 00:00:00 -14.8 185.5
1984-03-30 06:00:00 -15.9 186.2
1984-03-30 12:00:00 -17.4 187.0

top of pageTrack Data:Intensity

wellington
Date Wind Pres
1984-03-23 00:00:00 30. 997.
1984-03-23 06:00:00 30. 997.
1984-03-23 12:00:00 40. 990.
1984-03-23 18:00:00 40. 990.
1984-03-24 00:00:00 40. 990.
1984-03-24 06:00:00 40. 990.
1984-03-24 12:00:00 30. 997.
1984-03-24 18:00:00 30. 997.
1984-03-25 00:00:00 30. 997.
1984-03-25 06:00:00 30. 997.
1984-03-25 12:00:00 30. 997.
1984-03-25 18:00:00 30. 997.
1984-03-26 00:00:00 30. 997.
1984-03-26 06:00:00 30. 997.
1984-03-26 12:00:00 30. 997.
1984-03-26 18:00:00 30. 997.
1984-03-27 00:00:00 30. 997.
1984-03-27 06:00:00 30. 997.
1984-03-27 12:00:00 30. 997.
1984-03-27 18:00:00 30. 997.
1984-03-28 00:00:00 30. 997.
1984-03-28 06:00:00 30. 997.
1984-03-28 12:00:00 30. 997.
1984-03-28 18:00:00 30. 997.
1984-03-29 00:00:00 40. 990.
wellington
1984-03-29 06:00:00 40. 990.
1984-03-29 12:00:00 40. 990.
1984-03-29 18:00:00 40. 990.
1984-03-30 00:00:00 35. 995.
1984-03-30 06:00:00 35. 995.
1984-03-30 12:00:00 30. 997.

top of page Links to source data

Source Source file Format
wellington TC_BT_1967_2006.csv:Line=2146:NAMELESS Text table